sensor_id;sensor_type;location;lat;lon;timestamp;P1;durP1;ratioP1;P2;durP2;ratioP2
14167;SDS011;7163;50.626;12.922;2023-07-09T00:03:23;8.53;;;4.80;;
14167;SDS011;7163;50.626;12.922;2023-07-09T00:08:29;9.77;;;4.80;;
14167;SDS011;7163;50.626;12.922;2023-07-09T00:13:31;7.77;;;4.80;;
14167;SDS011;7163;50.626;12.922;2023-07-09T00:18:32;7.83;;;4.67;;
14167;SDS011;7163;50.626;12.922;2023-07-09T00:23:33;11.23;;;4.70;;
14167;SDS011;7163;50.626;12.922;2023-07-09T00:28:33;6.97;;;4.87;;
14167;SDS011;7163;50.626;12.922;2023-07-09T00:33:33;7.17;;;4.73;;
14167;SDS011;7163;50.626;12.922;2023-07-09T00:38:34;6.87;;;4.93;;
14167;SDS011;7163;50.626;12.922;2023-07-09T00:43:38;9.27;;;5.30;;
14167;SDS011;7163;50.626;12.922;2023-07-09T00:48:39;7.30;;;4.87;;
14167;SDS011;7163;50.626;12.922;2023-07-09T00:53:40;11.60;;;4.93;;
14167;SDS011;7163;50.626;12.922;2023-07-09T00:58:46;8.13;;;4.70;;
14167;SDS011;7163;50.626;12.922;2023-07-09T01:03:49;8.57;;;5.23;;
14167;SDS011;7163;50.626;12.922;2023-07-09T01:08:57;8.30;;;5.10;;
14167;SDS011;7163;50.626;12.922;2023-07-09T01:13:58;12.33;;;4.77;;
14167;SDS011;7163;50.626;12.922;2023-07-09T01:19:01;7.33;;;4.93;;
14167;SDS011;7163;50.626;12.922;2023-07-09T01:24:12;7.37;;;4.50;;
14167;SDS011;7163;50.626;12.922;2023-07-09T01:29:20;7.10;;;4.70;;
14167;SDS011;7163;50.626;12.922;2023-07-09T01:34:20;8.67;;;4.77;;
14167;SDS011;7163;50.626;12.922;2023-07-09T01:39:21;6.83;;;4.67;;
14167;SDS011;7163;50.626;12.922;2023-07-09T01:44:23;7.13;;;4.30;;
14167;SDS011;7163;50.626;12.922;2023-07-09T01:49:23;6.10;;;4.17;;
14167;SDS011;7163;50.626;12.922;2023-07-09T01:54:30;6.53;;;4.67;;
14167;SDS011;7163;50.626;12.922;2023-07-09T01:59:31;7.87;;;4.83;;
14167;SDS011;7163;50.626;12.922;2023-07-09T02:04:32;6.23;;;4.30;;
14167;SDS011;7163;50.626;12.922;2023-07-09T02:09:33;7.33;;;5.00;;
14167;SDS011;7163;50.626;12.922;2023-07-09T02:14:33;8.00;;;4.17;;
14167;SDS011;7163;50.626;12.922;2023-07-09T02:19:34;7.40;;;4.40;;
14167;SDS011;7163;50.626;12.922;2023-07-09T02:24:37;6.77;;;4.40;;
14167;SDS011;7163;50.626;12.922;2023-07-09T02:29:38;7.33;;;4.37;;
14167;SDS011;7163;50.626;12.922;2023-07-09T02:34:38;6.00;;;4.33;;
14167;SDS011;7163;50.626;12.922;2023-07-09T02:39:39;8.53;;;4.80;;
14167;SDS011;7163;50.626;12.922;2023-07-09T02:44:40;6.53;;;4.53;;
14167;SDS011;7163;50.626;12.922;2023-07-09T02:49:41;7.43;;;4.40;;
14167;SDS011;7163;50.626;12.922;2023-07-09T02:54:42;6.53;;;4.23;;
14167;SDS011;7163;50.626;12.922;2023-07-09T02:59:42;7.70;;;4.30;;
14167;SDS011;7163;50.626;12.922;2023-07-09T03:04:42;6.00;;;4.10;;
14167;SDS011;7163;50.626;12.922;2023-07-09T03:09:43;6.27;;;3.93;;
14167;SDS011;7163;50.626;12.922;2023-07-09T03:14:47;7.13;;;4.40;;
14167;SDS011;7163;50.626;12.922;2023-07-09T03:19:48;7.17;;;4.47;;
14167;SDS011;7163;50.626;12.922;2023-07-09T03:24:48;5.10;;;4.00;;
14167;SDS011;7163;50.626;12.922;2023-07-09T03:29:48;6.27;;;4.20;;
14167;SDS011;7163;50.626;12.922;2023-07-09T03:34:49;7.23;;;4.73;;
14167;SDS011;7163;50.626;12.922;2023-07-09T03:39:49;6.17;;;4.20;;
14167;SDS011;7163;50.626;12.922;2023-07-09T03:44:51;6.63;;;4.47;;
14167;SDS011;7163;50.626;12.922;2023-07-09T03:49:51;8.17;;;4.07;;
14167;SDS011;7163;50.626;12.922;2023-07-09T03:54:52;8.10;;;4.60;;
14167;SDS011;7163;50.626;12.922;2023-07-09T03:59:52;6.03;;;4.10;;
14167;SDS011;7163;50.626;12.922;2023-07-09T04:04:52;5.83;;;4.00;;
14167;SDS011;7163;50.626;12.922;2023-07-09T04:09:53;8.83;;;4.67;;
14167;SDS011;7163;50.626;12.922;2023-07-09T04:14:53;5.87;;;4.57;;
14167;SDS011;7163;50.626;12.922;2023-07-09T04:19:54;7.17;;;4.90;;
14167;SDS011;7163;50.626;12.922;2023-07-09T04:24:54;6.50;;;4.80;;
14167;SDS011;7163;50.626;12.922;2023-07-09T04:29:55;11.07;;;6.17;;
14167;SDS011;7163;50.626;12.922;2023-07-09T04:34:55;13.03;;;6.70;;
14167;SDS011;7163;50.626;12.922;2023-07-09T04:39:56;8.23;;;5.17;;
14167;SDS011;7163;50.626;12.922;2023-07-09T04:44:56;6.37;;;4.90;;
14167;SDS011;7163;50.626;12.922;2023-07-09T04:49:56;5.60;;;4.27;;
14167;SDS011;7163;50.626;12.922;2023-07-09T04:54:57;9.20;;;4.83;;
14167;SDS011;7163;50.626;12.922;2023-07-09T04:59:58;7.37;;;4.87;;
14167;SDS011;7163;50.626;12.922;2023-07-09T05:04:59;7.30;;;4.87;;
14167;SDS011;7163;50.626;12.922;2023-07-09T05:09:59;6.50;;;4.97;;
14167;SDS011;7163;50.626;12.922;2023-07-09T05:15:00;5.80;;;4.57;;
14167;SDS011;7163;50.626;12.922;2023-07-09T05:20:01;7.13;;;4.87;;
14167;SDS011;7163;50.626;12.922;2023-07-09T05:25:01;6.33;;;4.67;;
14167;SDS011;7163;50.626;12.922;2023-07-09T05:30:01;9.07;;;4.90;;
14167;SDS011;7163;50.626;12.922;2023-07-09T05:35:05;6.07;;;4.90;;
14167;SDS011;7163;50.626;12.922;2023-07-09T05:40:06;7.87;;;4.37;;
14167;SDS011;7163;50.626;12.922;2023-07-09T05:45:08;8.43;;;4.83;;
14167;SDS011;7163;50.626;12.922;2023-07-09T05:50:08;10.40;;;5.10;;
14167;SDS011;7163;50.626;12.922;2023-07-09T05:55:09;7.37;;;4.90;;
14167;SDS011;7163;50.626;12.922;2023-07-09T06:00:10;7.20;;;4.60;;
14167;SDS011;7163;50.626;12.922;2023-07-09T06:05:11;8.07;;;4.20;;
14167;SDS011;7163;50.626;12.922;2023-07-09T06:10:12;10.10;;;4.68;;
14167;SDS011;7163;50.626;12.922;2023-07-09T06:15:15;8.47;;;4.80;;
14167;SDS011;7163;50.626;12.922;2023-07-09T06:20:16;7.13;;;4.88;;
14167;SDS011;7163;50.626;12.922;2023-07-09T06:25:16;6.38;;;4.10;;
14167;SDS011;7163;50.626;12.922;2023-07-09T06:30:16;7.15;;;4.57;;
14167;SDS011;7163;50.626;12.922;2023-07-09T06:35:19;5.93;;;4.47;;
14167;SDS011;7163;50.626;12.922;2023-07-09T06:40:19;6.13;;;4.65;;
14167;SDS011;7163;50.626;12.922;2023-07-09T06:45:20;9.60;;;4.78;;
14167;SDS011;7163;50.626;12.922;2023-07-09T06:50:21;11.73;;;4.95;;
14167;SDS011;7163;50.626;12.922;2023-07-09T06:55:21;6.35;;;4.82;;
14167;SDS011;7163;50.626;12.922;2023-07-09T07:00:22;9.38;;;4.78;;
14167;SDS011;7163;50.626;12.922;2023-07-09T07:05:22;12.10;;;4.68;;
14167;SDS011;7163;50.626;12.922;2023-07-09T07:10:23;14.85;;;4.82;;
14167;SDS011;7163;50.626;12.922;2023-07-09T07:15:25;8.20;;;5.03;;
14167;SDS011;7163;50.626;12.922;2023-07-09T07:20:26;9.38;;;4.43;;
14167;SDS011;7163;50.626;12.922;2023-07-09T07:25:26;6.72;;;4.47;;
14167;SDS011;7163;50.626;12.922;2023-07-09T07:30:26;9.55;;;4.18;;
14167;SDS011;7163;50.626;12.922;2023-07-09T07:35:27;6.50;;;4.20;;
14167;SDS011;7163;50.626;12.922;2023-07-09T07:40:27;6.43;;;4.05;;
14167;SDS011;7163;50.626;12.922;2023-07-09T07:45:28;6.40;;;4.30;;
14167;SDS011;7163;50.626;12.922;2023-07-09T07:50:28;5.95;;;4.38;;
14167;SDS011;7163;50.626;12.922;2023-07-09T07:55:28;4.97;;;3.90;;
14167;SDS011;7163;50.626;12.922;2023-07-09T08:00:29;6.25;;;4.30;;
14167;SDS011;7163;50.626;12.922;2023-07-09T08:05:30;6.20;;;4.20;;
14167;SDS011;7163;50.626;12.922;2023-07-09T08:10:30;7.13;;;4.23;;
14167;SDS011;7163;50.626;12.922;2023-07-09T08:15:31;6.20;;;4.00;;
14167;SDS011;7163;50.626;12.922;2023-07-09T08:20:32;4.20;;;3.70;;
14167;SDS011;7163;50.626;12.922;2023-07-09T08:25:33;5.35;;;4.00;;
14167;SDS011;7163;50.626;12.922;2023-07-09T08:30:34;5.40;;;4.40;;
14167;SDS011;7163;50.626;12.922;2023-07-09T08:35:36;5.38;;;4.00;;
14167;SDS011;7163;50.626;12.922;2023-07-09T08:40:39;7.60;;;4.67;;
14167;SDS011;7163;50.626;12.922;2023-07-09T08:50:53;5.32;;;3.97;;
14167;SDS011;7163;50.626;12.922;2023-07-09T08:55:55;5.15;;;3.95;;
14167;SDS011;7163;50.626;12.922;2023-07-09T09:06:01;5.47;;;3.83;;
14167;SDS011;7163;50.626;12.922;2023-07-09T09:11:16;6.70;;;4.15;;
14167;SDS011;7163;50.626;12.922;2023-07-09T09:16:24;4.75;;;4.00;;
14167;SDS011;7163;50.626;12.922;2023-07-09T09:21:31;6.28;;;4.22;;
14167;SDS011;7163;50.626;12.922;2023-07-09T09:26:33;7.97;;;4.35;;
14167;SDS011;7163;50.626;12.922;2023-07-09T09:31:34;5.32;;;4.10;;
14167;SDS011;7163;50.626;12.922;2023-07-09T09:36:36;5.15;;;3.90;;
14167;SDS011;7163;50.626;12.922;2023-07-09T09:41:46;5.90;;;4.13;;
14167;SDS011;7163;50.626;12.922;2023-07-09T09:46:47;5.00;;;3.95;;
14167;SDS011;7163;50.626;12.922;2023-07-09T09:51:49;5.40;;;4.30;;
14167;SDS011;7163;50.626;12.922;2023-07-09T09:56:50;5.97;;;4.53;;
14167;SDS011;7163;50.626;12.922;2023-07-09T10:01:59;5.80;;;4.40;;
14167;SDS011;7163;50.626;12.922;2023-07-09T10:07:03;6.95;;;4.68;;
14167;SDS011;7163;50.626;12.922;2023-07-09T10:12:15;5.53;;;4.10;;
14167;SDS011;7163;50.626;12.922;2023-07-09T10:17:28;6.97;;;4.38;;
14167;SDS011;7163;50.626;12.922;2023-07-09T10:22:43;6.40;;;4.13;;
14167;SDS011;7163;50.626;12.922;2023-07-09T10:28:15;7.30;;;4.50;;
14167;SDS011;7163;50.626;12.922;2023-07-09T10:33:51;9.73;;;4.75;;
14167;SDS011;7163;50.626;12.922;2023-07-09T10:39:03;9.73;;;4.47;;
14167;SDS011;7163;50.626;12.922;2023-07-09T10:44:11;6.65;;;4.80;;
14167;SDS011;7163;50.626;12.922;2023-07-09T10:49:16;7.05;;;4.80;;
14167;SDS011;7163;50.626;12.922;2023-07-09T10:59:33;8.15;;;5.00;;
14167;SDS011;7163;50.626;12.922;2023-07-09T11:04:40;7.47;;;4.40;;
14167;SDS011;7163;50.626;12.922;2023-07-09T11:09:45;7.22;;;4.32;;
14167;SDS011;7163;50.626;12.922;2023-07-09T11:14:56;7.40;;;4.53;;
14167;SDS011;7163;50.626;12.922;2023-07-09T11:20:43;10.30;;;4.57;;
14167;SDS011;7163;50.626;12.922;2023-07-09T11:25:43;6.30;;;4.30;;
14167;SDS011;7163;50.626;12.922;2023-07-09T11:30:50;9.95;;;4.78;;
14167;SDS011;7163;50.626;12.922;2023-07-09T11:35:53;9.13;;;4.38;;
14167;SDS011;7163;50.626;12.922;2023-07-09T11:46:34;6.60;;;4.32;;
14167;SDS011;7163;50.626;12.922;2023-07-09T11:51:38;9.98;;;5.50;;
14167;SDS011;7163;50.626;12.922;2023-07-09T11:56:41;5.00;;;4.47;;
14167;SDS011;7163;50.626;12.922;2023-07-09T12:01:42;6.75;;;4.78;;
14167;SDS011;7163;50.626;12.922;2023-07-09T12:18:00;6.07;;;4.40;;
14167;SDS011;7163;50.626;12.922;2023-07-09T12:28:23;5.25;;;4.38;;
14167;SDS011;7163;50.626;12.922;2023-07-09T12:33:25;10.20;;;4.72;;
14167;SDS011;7163;50.626;12.922;2023-07-09T12:38:28;11.82;;;4.70;;
14167;SDS011;7163;50.626;12.922;2023-07-09T12:43:31;7.63;;;4.50;;
14167;SDS011;7163;50.626;12.922;2023-07-09T12:48:32;7.03;;;4.50;;
14167;SDS011;7163;50.626;12.922;2023-07-09T12:53:33;7.25;;;4.50;;
14167;SDS011;7163;50.626;12.922;2023-07-09T12:58:40;7.70;;;4.97;;
14167;SDS011;7163;50.626;12.922;2023-07-09T13:03:41;6.18;;;4.22;;
14167;SDS011;7163;50.626;12.922;2023-07-09T13:08:42;7.00;;;4.63;;
14167;SDS011;7163;50.626;12.922;2023-07-09T13:25:42;5.93;;;4.30;;
14167;SDS011;7163;50.626;12.922;2023-07-09T13:31:16;5.70;;;4.30;;
14167;SDS011;7163;50.626;12.922;2023-07-09T13:36:24;6.75;;;4.07;;
14167;SDS011;7163;50.626;12.922;2023-07-09T13:41:38;6.05;;;4.18;;
14167;SDS011;7163;50.626;12.922;2023-07-09T13:46:38;5.18;;;4.50;;
14167;SDS011;7163;50.626;12.922;2023-07-09T13:52:04;8.23;;;4.28;;
14167;SDS011;7163;50.626;12.922;2023-07-09T13:57:12;5.95;;;4.20;;
14167;SDS011;7163;50.626;12.922;2023-07-09T14:02:34;5.32;;;4.07;;
14167;SDS011;7163;50.626;12.922;2023-07-09T14:08:20;5.30;;;4.00;;
14167;SDS011;7163;50.626;12.922;2023-07-09T14:13:23;6.47;;;4.60;;
14167;SDS011;7163;50.626;12.922;2023-07-09T14:18:24;7.60;;;4.63;;
14167;SDS011;7163;50.626;12.922;2023-07-09T14:23:27;5.07;;;4.13;;
14167;SDS011;7163;50.626;12.922;2023-07-09T14:34:32;5.40;;;4.22;;
14167;SDS011;7163;50.626;12.922;2023-07-09T14:39:33;7.18;;;4.68;;
14167;SDS011;7163;50.626;12.922;2023-07-09T14:44:33;7.68;;;4.63;;
14167;SDS011;7163;50.626;12.922;2023-07-09T14:49:34;10.50;;;4.82;;
14167;SDS011;7163;50.626;12.922;2023-07-09T14:54:41;6.20;;;4.50;;
14167;SDS011;7163;50.626;12.922;2023-07-09T14:59:42;8.23;;;4.65;;
14167;SDS011;7163;50.626;12.922;2023-07-09T15:04:42;7.10;;;4.43;;
14167;SDS011;7163;50.626;12.922;2023-07-09T15:09:44;6.93;;;4.22;;
14167;SDS011;7163;50.626;12.922;2023-07-09T15:14:45;7.57;;;4.43;;
14167;SDS011;7163;50.626;12.922;2023-07-09T15:19:47;7.07;;;4.40;;
14167;SDS011;7163;50.626;12.922;2023-07-09T15:24:49;5.55;;;4.28;;
14167;SDS011;7163;50.626;12.922;2023-07-09T15:29:50;5.15;;;4.18;;
14167;SDS011;7163;50.626;12.922;2023-07-09T15:34:50;7.75;;;4.68;;
14167;SDS011;7163;50.626;12.922;2023-07-09T15:39:51;5.97;;;4.43;;
14167;SDS011;7163;50.626;12.922;2023-07-09T15:44:52;5.78;;;4.20;;
14167;SDS011;7163;50.626;12.922;2023-07-09T15:49:52;6.13;;;4.15;;
14167;SDS011;7163;50.626;12.922;2023-07-09T15:54:53;7.35;;;4.45;;
14167;SDS011;7163;50.626;12.922;2023-07-09T15:59:54;6.63;;;4.68;;
14167;SDS011;7163;50.626;12.922;2023-07-09T16:04:54;11.00;;;4.50;;
14167;SDS011;7163;50.626;12.922;2023-07-09T16:09:55;6.75;;;4.82;;
14167;SDS011;7163;50.626;12.922;2023-07-09T16:14:55;9.68;;;5.10;;
14167;SDS011;7163;50.626;12.922;2023-07-09T16:19:57;7.22;;;4.88;;
14167;SDS011;7163;50.626;12.922;2023-07-09T16:24:58;10.73;;;4.30;;
14167;SDS011;7163;50.626;12.922;2023-07-09T16:29:59;6.45;;;4.78;;
14167;SDS011;7163;50.626;12.922;2023-07-09T16:35:00;5.35;;;4.50;;
14167;SDS011;7163;50.626;12.922;2023-07-09T16:40:03;7.00;;;5.07;;
14167;SDS011;7163;50.626;12.922;2023-07-09T16:45:04;6.30;;;4.63;;
14167;SDS011;7163;50.626;12.922;2023-07-09T16:50:05;8.35;;;5.07;;
14167;SDS011;7163;50.626;12.922;2023-07-09T16:55:06;5.35;;;4.57;;
14167;SDS011;7163;50.626;12.922;2023-07-09T17:05:12;5.07;;;4.45;;
14167;SDS011;7163;50.626;12.922;2023-07-09T17:10:13;6.03;;;4.75;;
14167;SDS011;7163;50.626;12.922;2023-07-09T17:15:16;7.70;;;4.90;;
14167;SDS011;7163;50.626;12.922;2023-07-09T17:20:20;7.10;;;4.55;;
14167;SDS011;7163;50.626;12.922;2023-07-09T17:25:29;7.38;;;4.80;;
14167;SDS011;7163;50.626;12.922;2023-07-09T17:30:31;7.88;;;4.60;;
14167;SDS011;7163;50.626;12.922;2023-07-09T17:35:34;9.93;;;4.90;;
14167;SDS011;7163;50.626;12.922;2023-07-09T17:40:35;8.55;;;5.05;;
14167;SDS011;7163;50.626;12.922;2023-07-09T17:45:36;9.13;;;5.10;;
14167;SDS011;7163;50.626;12.922;2023-07-09T17:50:37;9.73;;;5.03;;
14167;SDS011;7163;50.626;12.922;2023-07-09T17:55:42;5.85;;;4.70;;
14167;SDS011;7163;50.626;12.922;2023-07-09T18:00:46;7.05;;;4.88;;
14167;SDS011;7163;50.626;12.922;2023-07-09T18:05:46;11.40;;;5.53;;
14167;SDS011;7163;50.626;12.922;2023-07-09T18:10:47;9.98;;;5.70;;
14167;SDS011;7163;50.626;12.922;2023-07-09T18:15:51;7.75;;;5.30;;
14167;SDS011;7163;50.626;12.922;2023-07-09T18:20:53;13.07;;;5.68;;
14167;SDS011;7163;50.626;12.922;2023-07-09T18:25:54;12.38;;;6.75;;
14167;SDS011;7163;50.626;12.922;2023-07-09T18:30:55;8.32;;;5.47;;
14167;SDS011;7163;50.626;12.922;2023-07-09T18:35:56;8.38;;;5.25;;
14167;SDS011;7163;50.626;12.922;2023-07-09T18:40:57;10.35;;;5.47;;
14167;SDS011;7163;50.626;12.922;2023-07-09T18:45:58;9.65;;;5.53;;
14167;SDS011;7163;50.626;12.922;2023-07-09T18:50:58;8.93;;;5.85;;
14167;SDS011;7163;50.626;12.922;2023-07-09T18:56:00;9.07;;;5.85;;
14167;SDS011;7163;50.626;12.922;2023-07-09T19:01:12;12.30;;;5.45;;
14167;SDS011;7163;50.626;12.922;2023-07-09T19:06:18;9.63;;;5.70;;
14167;SDS011;7163;50.626;12.922;2023-07-09T19:11:20;8.25;;;5.30;;
14167;SDS011;7163;50.626;12.922;2023-07-09T19:16:24;9.88;;;6.13;;
14167;SDS011;7163;50.626;12.922;2023-07-09T19:21:27;10.48;;;6.45;;
14167;SDS011;7163;50.626;12.922;2023-07-09T19:26:30;13.18;;;6.60;;
14167;SDS011;7163;50.626;12.922;2023-07-09T19:31:32;9.80;;;6.20;;
14167;SDS011;7163;50.626;12.922;2023-07-09T19:36:33;8.85;;;5.93;;
14167;SDS011;7163;50.626;12.922;2023-07-09T19:41:35;9.60;;;5.78;;
14167;SDS011;7163;50.626;12.922;2023-07-09T19:46:44;8.43;;;5.78;;
14167;SDS011;7163;50.626;12.922;2023-07-09T19:51:58;11.20;;;6.15;;
14167;SDS011;7163;50.626;12.922;2023-07-09T19:57:08;17.77;;;6.22;;
14167;SDS011;7163;50.626;12.922;2023-07-09T20:02:20;10.43;;;6.00;;
14167;SDS011;7163;50.626;12.922;2023-07-09T20:07:22;9.85;;;6.13;;
14167;SDS011;7163;50.626;12.922;2023-07-09T20:12:23;9.82;;;6.05;;
14167;SDS011;7163;50.626;12.922;2023-07-09T20:17:32;9.85;;;6.53;;
14167;SDS011;7163;50.626;12.922;2023-07-09T20:22:33;7.83;;;5.43;;
14167;SDS011;7163;50.626;12.922;2023-07-09T20:27:35;9.73;;;6.30;;
14167;SDS011;7163;50.626;12.922;2023-07-09T20:32:37;8.05;;;5.93;;
14167;SDS011;7163;50.626;12.922;2023-07-09T20:37:41;8.23;;;6.22;;
14167;SDS011;7163;50.626;12.922;2023-07-09T20:42:42;7.95;;;6.03;;
14167;SDS011;7163;50.626;12.922;2023-07-09T20:47:43;12.98;;;5.93;;
14167;SDS011;7163;50.626;12.922;2023-07-09T20:52:43;9.55;;;5.85;;
14167;SDS011;7163;50.626;12.922;2023-07-09T20:57:45;9.60;;;5.93;;
14167;SDS011;7163;50.626;12.922;2023-07-09T21:02:47;12.47;;;5.60;;
14167;SDS011;7163;50.626;12.922;2023-07-09T21:07:48;9.57;;;5.90;;
14167;SDS011;7163;50.626;12.922;2023-07-09T21:12:50;10.53;;;5.83;;
14167;SDS011;7163;50.626;12.922;2023-07-09T21:17:52;9.13;;;6.27;;
14167;SDS011;7163;50.626;12.922;2023-07-09T21:22:55;9.83;;;6.53;;
14167;SDS011;7163;50.626;12.922;2023-07-09T21:28:02;9.50;;;6.40;;
14167;SDS011;7163;50.626;12.922;2023-07-09T21:33:03;13.13;;;6.07;;
14167;SDS011;7163;50.626;12.922;2023-07-09T21:38:04;9.83;;;6.03;;
14167;SDS011;7163;50.626;12.922;2023-07-09T21:43:16;9.97;;;6.50;;
14167;SDS011;7163;50.626;12.922;2023-07-09T21:48:23;10.47;;;6.10;;
14167;SDS011;7163;50.626;12.922;2023-07-09T21:53:26;9.97;;;6.37;;
14167;SDS011;7163;50.626;12.922;2023-07-09T21:58:30;10.10;;;6.80;;
14167;SDS011;7163;50.626;12.922;2023-07-09T22:03:31;8.80;;;6.23;;
14167;SDS011;7163;50.626;12.922;2023-07-09T22:08:33;10.57;;;6.30;;
14167;SDS011;7163;50.626;12.922;2023-07-09T22:13:34;12.97;;;6.37;;
14167;SDS011;7163;50.626;12.922;2023-07-09T22:18:36;11.47;;;5.83;;
14167;SDS011;7163;50.626;12.922;2023-07-09T22:23:37;11.90;;;6.30;;
14167;SDS011;7163;50.626;12.922;2023-07-09T22:28:38;11.03;;;5.60;;
14167;SDS011;7163;50.626;12.922;2023-07-09T22:33:41;7.87;;;5.30;;
14167;SDS011;7163;50.626;12.922;2023-07-09T22:38:43;9.73;;;5.70;;
14167;SDS011;7163;50.626;12.922;2023-07-09T22:43:45;13.50;;;5.47;;
14167;SDS011;7163;50.626;12.922;2023-07-09T22:48:47;11.83;;;6.20;;
14167;SDS011;7163;50.626;12.922;2023-07-09T22:53:54;9.20;;;5.77;;
14167;SDS011;7163;50.626;12.922;2023-07-09T22:58:55;8.97;;;5.37;;
14167;SDS011;7163;50.626;12.922;2023-07-09T23:03:57;13.50;;;5.73;;
14167;SDS011;7163;50.626;12.922;2023-07-09T23:08:58;10.47;;;6.03;;
14167;SDS011;7163;50.626;12.922;2023-07-09T23:14:22;8.77;;;5.37;;
14167;SDS011;7163;50.626;12.922;2023-07-09T23:19:26;10.00;;;5.40;;
14167;SDS011;7163;50.626;12.922;2023-07-09T23:24:27;8.33;;;5.30;;
14167;SDS011;7163;50.626;12.922;2023-07-09T23:29:27;8.73;;;5.53;;
14167;SDS011;7163;50.626;12.922;2023-07-09T23:34:28;10.97;;;6.00;;
14167;SDS011;7163;50.626;12.922;2023-07-09T23:39:28;9.93;;;5.90;;
14167;SDS011;7163;50.626;12.922;2023-07-09T23:44:30;7.97;;;5.80;;
14167;SDS011;7163;50.626;12.922;2023-07-09T23:49:30;9.80;;;5.53;;
14167;SDS011;7163;50.626;12.922;2023-07-09T23:54:31;8.17;;;5.70;;
14167;SDS011;7163;50.626;12.922;2023-07-09T23:59:32;11.30;;;5.93;;
